sensor_id;sensor_type;location;lat;lon;timestamp;pressure;altitude;pressure_sealevel;temperature;humidity
66762;BME280;53672;48.176;16.338;2023-03-15T00:03:04;98176.94;;;7.68;58.18
66762;BME280;53672;48.176;16.338;2023-03-15T00:08:04;98186.56;;;7.69;57.68
66762;BME280;53672;48.176;16.338;2023-03-15T00:13:06;98193.81;;;7.69;57.31
66762;BME280;53672;48.176;16.338;2023-03-15T00:18:07;98190.56;;;7.72;56.96
66762;BME280;53672;48.176;16.338;2023-03-15T00:23:08;98204.50;;;7.74;56.79
66762;BME280;53672;48.176;16.338;2023-03-15T00:28:10;98208.25;;;7.73;56.96
66762;BME280;53672;48.176;16.338;2023-03-15T00:33:11;98207.69;;;7.76;56.64
66762;BME280;53672;48.176;16.338;2023-03-15T00:38:12;98210.88;;;7.78;56.27
66762;BME280;53672;48.176;16.338;2023-03-15T00:43:14;98214.94;;;7.75;56.32
66762;BME280;53672;48.176;16.338;2023-03-15T00:48:14;98211.69;;;7.78;55.99
66762;BME280;53672;48.176;16.338;2023-03-15T00:53:15;98219.97;;;7.82;55.88
66762;BME280;53672;48.176;16.338;2023-03-15T00:58:17;98239.03;;;7.80;55.53
66762;BME280;53672;48.176;16.338;2023-03-15T01:03:18;98235.56;;;7.80;55.47
66762;BME280;53672;48.176;16.338;2023-03-15T01:08:18;98234.19;;;7.82;54.79
66762;BME280;53672;48.176;16.338;2023-03-15T01:13:20;98246.31;;;7.75;55.05
66762;BME280;53672;48.176;16.338;2023-03-15T01:18:21;98246.03;;;7.76;54.68
66762;BME280;53672;48.176;16.338;2023-03-15T01:23:21;98252.44;;;7.80;54.20
66762;BME280;53672;48.176;16.338;2023-03-15T01:28:23;98257.03;;;7.75;54.44
66762;BME280;53672;48.176;16.338;2023-03-15T01:33:24;98264.06;;;7.71;55.50
66762;BME280;53672;48.176;16.338;2023-03-15T01:38:24;98280.09;;;7.47;62.96
66762;BME280;53672;48.176;16.338;2023-03-15T01:43:27;98284.56;;;7.23;66.86
66762;BME280;53672;48.176;16.338;2023-03-15T01:48:33;98294.41;;;6.98;68.27
66762;BME280;53672;48.176;16.338;2023-03-15T01:53:35;98313.78;;;6.80;68.38
66762;BME280;53672;48.176;16.338;2023-03-15T01:58:40;98325.09;;;6.62;68.76
66762;BME280;53672;48.176;16.338;2023-03-15T02:03:44;98329.44;;;6.48;68.48
66762;BME280;53672;48.176;16.338;2023-03-15T02:08:50;98323.03;;;6.39;68.67
66762;BME280;53672;48.176;16.338;2023-03-15T02:13:53;98338.06;;;6.25;68.73
66762;BME280;53672;48.176;16.338;2023-03-15T02:18:54;98352.50;;;6.24;68.96
66762;BME280;53672;48.176;16.338;2023-03-15T02:24:04;98341.31;;;6.06;69.54
66762;BME280;53672;48.176;16.338;2023-03-15T02:29:10;98337.59;;;5.87;69.63
66762;BME280;53672;48.176;16.338;2023-03-15T02:34:11;98331.44;;;5.82;70.03
66762;BME280;53672;48.176;16.338;2023-03-15T02:39:14;98329.81;;;5.66;70.71
66762;BME280;53672;48.176;16.338;2023-03-15T02:44:18;98325.81;;;5.53;70.63
66762;BME280;53672;48.176;16.338;2023-03-15T02:49:23;98333.84;;;5.48;71.20
66762;BME280;53672;48.176;16.338;2023-03-15T02:54:25;98334.91;;;5.37;70.84
66762;BME280;53672;48.176;16.338;2023-03-15T02:59:27;98344.25;;;5.29;70.83
66762;BME280;53672;48.176;16.338;2023-03-15T03:04:28;98348.25;;;5.27;70.83
66762;BME280;53672;48.176;16.338;2023-03-15T03:09:28;98341.31;;;5.31;70.71
66762;BME280;53672;48.176;16.338;2023-03-15T03:14:30;98344.25;;;5.29;70.88
66762;BME280;53672;48.176;16.338;2023-03-15T03:19:31;98361.63;;;5.27;70.41
66762;BME280;53672;48.176;16.338;2023-03-15T03:24:31;98364.81;;;5.24;70.84
66762;BME280;53672;48.176;16.338;2023-03-15T03:29:33;98370.94;;;5.19;69.95
66762;BME280;53672;48.176;16.338;2023-03-15T03:34:34;98367.47;;;5.14;70.26
66762;BME280;53672;48.176;16.338;2023-03-15T03:39:35;98373.88;;;5.13;70.32
66762;BME280;53672;48.176;16.338;2023-03-15T03:44:37;98373.03;;;5.07;70.97
66762;BME280;53672;48.176;16.338;2023-03-15T03:49:37;98392.25;;;4.99;70.55
66762;BME280;53672;48.176;16.338;2023-03-15T03:54:38;98411.47;;;5.01;70.06
66762;BME280;53672;48.176;16.338;2023-03-15T03:59:39;98405.59;;;4.99;68.84
66762;BME280;53672;48.176;16.338;2023-03-15T04:04:40;98410.63;;;4.90;66.67
66762;BME280;53672;48.176;16.338;2023-03-15T04:09:41;98412.78;;;4.88;64.34
66762;BME280;53672;48.176;16.338;2023-03-15T04:14:43;98414.88;;;4.81;62.82
66762;BME280;53672;48.176;16.338;2023-03-15T04:19:44;98419.41;;;4.76;61.21
66762;BME280;53672;48.176;16.338;2023-03-15T04:24:45;98435.69;;;4.79;59.47
66762;BME280;53672;48.176;16.338;2023-03-15T04:29:47;98439.91;;;4.70;58.73
66762;BME280;53672;48.176;16.338;2023-03-15T04:34:47;98447.91;;;4.65;58.99
66762;BME280;53672;48.176;16.338;2023-03-15T04:39:47;98466.00;;;4.63;58.26
66762;BME280;53672;48.176;16.338;2023-03-15T04:44:49;98461.25;;;4.65;57.74
66762;BME280;53672;48.176;16.338;2023-03-15T04:49:50;98467.88;;;4.57;57.62
66762;BME280;53672;48.176;16.338;2023-03-15T04:54:51;98470.25;;;4.54;57.18
66762;BME280;53672;48.176;16.338;2023-03-15T04:59:52;98488.94;;;4.59;56.17
66762;BME280;53672;48.176;16.338;2023-03-15T05:04:53;98496.88;;;4.49;56.66
66762;BME280;53672;48.176;16.338;2023-03-15T05:09:53;98501.44;;;4.53;56.36
66762;BME280;53672;48.176;16.338;2023-03-15T05:14:56;98497.91;;;4.43;56.75
66762;BME280;53672;48.176;16.338;2023-03-15T05:19:56;98495.75;;;4.40;56.84
66762;BME280;53672;48.176;16.338;2023-03-15T05:24:57;98499.44;;;4.34;56.45
66762;BME280;53672;48.176;16.338;2023-03-15T05:29:59;98522.06;;;4.26;56.65
66762;BME280;53672;48.176;16.338;2023-03-15T05:35:00;98524.22;;;4.29;56.84
66762;BME280;53672;48.176;16.338;2023-03-15T05:40:01;98521.09;;;4.37;56.22
66762;BME280;53672;48.176;16.338;2023-03-15T05:45:03;98520.19;;;4.27;56.49
66762;BME280;53672;48.176;16.338;2023-03-15T05:50:04;98527.44;;;4.31;55.51
66762;BME280;53672;48.176;16.338;2023-03-15T05:55:05;98536.22;;;4.32;55.01
66762;BME280;53672;48.176;16.338;2023-03-15T06:00:09;98568.84;;;4.39;54.82
66762;BME280;53672;48.176;16.338;2023-03-15T06:05:09;98568.28;;;4.37;54.71
66762;BME280;53672;48.176;16.338;2023-03-15T06:10:10;98580.31;;;4.39;53.33
66762;BME280;53672;48.176;16.338;2023-03-15T06:15:12;98585.44;;;4.46;52.15
66762;BME280;53672;48.176;16.338;2023-03-15T06:20:13;98593.22;;;4.52;52.70
66762;BME280;53672;48.176;16.338;2023-03-15T06:25:13;98602.56;;;4.50;52.23
66762;BME280;53672;48.176;16.338;2023-03-15T06:30:15;98609.31;;;4.63;52.32
66762;BME280;53672;48.176;16.338;2023-03-15T06:35:16;98627.16;;;4.89;51.59
66762;BME280;53672;48.176;16.338;2023-03-15T06:40:17;98628.69;;;5.17;50.47
66762;BME280;53672;48.176;16.338;2023-03-15T06:45:19;98640.66;;;5.51;48.94
66762;BME280;53672;48.176;16.338;2023-03-15T06:50:19;98656.53;;;5.73;48.42
66762;BME280;53672;48.176;16.338;2023-03-15T06:55:20;98662.09;;;5.61;48.01
66762;BME280;53672;48.176;16.338;2023-03-15T07:00:22;98676.50;;;5.60;47.98
66762;BME280;53672;48.176;16.338;2023-03-15T07:05:23;98686.72;;;5.68;47.21
66762;BME280;53672;48.176;16.338;2023-03-15T07:10:23;98699.56;;;5.71;45.84
66762;BME280;53672;48.176;16.338;2023-03-15T07:15:25;98703.34;;;5.75;46.49
66762;BME280;53672;48.176;16.338;2023-03-15T07:20:26;98716.31;;;6.03;45.89
66762;BME280;53672;48.176;16.338;2023-03-15T07:25:26;98729.22;;;6.11;45.91
66762;BME280;53672;48.176;16.338;2023-03-15T07:30:28;98742.56;;;6.06;45.29
66762;BME280;53672;48.176;16.338;2023-03-15T07:35:29;98749.84;;;6.21;45.27
66762;BME280;53672;48.176;16.338;2023-03-15T07:40:29;98755.28;;;6.41;44.21
66762;BME280;53672;48.176;16.338;2023-03-15T07:45:31;98749.81;;;6.88;43.43
66762;BME280;53672;48.176;16.338;2023-03-15T07:50:32;98748.22;;;7.53;41.81
66762;BME280;53672;48.176;16.338;2023-03-15T07:55:33;98777.94;;;7.77;41.86
66762;BME280;53672;48.176;16.338;2023-03-15T08:00:35;98767.06;;;8.37;40.64
66762;BME280;53672;48.176;16.338;2023-03-15T08:05:35;98768.59;;;8.58;40.16
66762;BME280;53672;48.176;16.338;2023-03-15T08:10:36;98775.63;;;8.98;38.93
66762;BME280;53672;48.176;16.338;2023-03-15T08:15:38;98781.97;;;9.51;38.01
66762;BME280;53672;48.176;16.338;2023-03-15T08:20:38;98786.63;;;9.75;37.33
66762;BME280;53672;48.176;16.338;2023-03-15T08:25:39;98794.50;;;10.24;36.93
66762;BME280;53672;48.176;16.338;2023-03-15T08:30:41;98800.84;;;11.68;34.24
66762;BME280;53672;48.176;16.338;2023-03-15T08:35:41;98804.09;;;12.44;32.96
66762;BME280;53672;48.176;16.338;2023-03-15T08:40:42;98818.28;;;13.04;31.54
66762;BME280;53672;48.176;16.338;2023-03-15T08:45:43;98816.41;;;14.94;28.73
66762;BME280;53672;48.176;16.338;2023-03-15T08:50:44;98826.72;;;16.47;26.18
66762;BME280;53672;48.176;16.338;2023-03-15T08:55:46;98828.69;;;16.29;25.39
66762;BME280;53672;48.176;16.338;2023-03-15T09:00:49;98834.44;;;17.33;24.57
66762;BME280;53672;48.176;16.338;2023-03-15T09:05:54;98836.44;;;18.31;26.96
66762;BME280;53672;48.176;16.338;2023-03-15T09:10:55;98845.63;;;18.26;24.50
66762;BME280;53672;48.176;16.338;2023-03-15T09:15:57;98853.09;;;19.35;22.05
66762;BME280;53672;48.176;16.338;2023-03-15T09:20:58;98857.72;;;20.42;20.32
66762;BME280;53672;48.176;16.338;2023-03-15T09:25:58;98859.94;;;20.52;20.33
66762;BME280;53672;48.176;16.338;2023-03-15T09:31:03;98876.75;;;21.48;19.41
66762;BME280;53672;48.176;16.338;2023-03-15T09:36:03;98883.53;;;20.72;19.96
66762;BME280;53672;48.176;16.338;2023-03-15T09:41:04;98879.31;;;22.98;17.44
66762;BME280;53672;48.176;16.338;2023-03-15T09:46:19;98881.69;;;19.13;19.82
66762;BME280;53672;48.176;16.338;2023-03-15T09:51:29;98882.91;;;18.67;21.37
66762;BME280;53672;48.176;16.338;2023-03-15T09:56:34;98881.47;;;16.37;23.31
66762;BME280;53672;48.176;16.338;2023-03-15T10:01:38;98878.13;;;15.28;24.99
66762;BME280;53672;48.176;16.338;2023-03-15T10:06:42;98898.00;;;15.97;24.98
66762;BME280;53672;48.176;16.338;2023-03-15T10:11:52;98897.44;;;21.26;19.09
66762;BME280;53672;48.176;16.338;2023-03-15T10:16:57;98903.41;;;23.57;16.21
66762;BME280;53672;48.176;16.338;2023-03-15T10:22:00;98885.84;;;23.98;15.73
66762;BME280;53672;48.176;16.338;2023-03-15T10:27:12;98877.63;;;24.72;15.37
66762;BME280;53672;48.176;16.338;2023-03-15T10:32:17;98873.84;;;27.91;12.84
66762;BME280;53672;48.176;16.338;2023-03-15T10:37:18;98873.00;;;23.76;15.34
66762;BME280;53672;48.176;16.338;2023-03-15T10:42:26;98871.69;;;19.81;19.15
66762;BME280;53672;48.176;16.338;2023-03-15T10:47:28;98873.06;;;19.75;20.47
66762;BME280;53672;48.176;16.338;2023-03-15T10:52:35;98875.38;;;19.61;19.71
66762;BME280;53672;48.176;16.338;2023-03-15T10:57:38;98869.44;;;19.59;19.68
66762;BME280;53672;48.176;16.338;2023-03-15T11:02:48;98873.88;;;20.31;18.33
66762;BME280;53672;48.176;16.338;2023-03-15T11:07:53;98860.16;;;17.85;21.02
66762;BME280;53672;48.176;16.338;2023-03-15T11:13:17;98854.56;;;17.40;21.67
66762;BME280;53672;48.176;16.338;2023-03-15T11:18:26;98847.66;;;16.93;21.98
66762;BME280;53672;48.176;16.338;2023-03-15T11:23:30;98864.53;;;17.36;21.23
66762;BME280;53672;48.176;16.338;2023-03-15T11:28:34;98871.94;;;17.56;21.09
66762;BME280;53672;48.176;16.338;2023-03-15T11:33:42;98870.03;;;15.80;22.51
66762;BME280;53672;48.176;16.338;2023-03-15T11:38:45;98871.66;;;15.63;22.88
66762;BME280;53672;48.176;16.338;2023-03-15T11:43:49;98884.59;;;15.92;21.64
66762;BME280;53672;48.176;16.338;2023-03-15T11:49:00;98874.72;;;15.14;23.27
66762;BME280;53672;48.176;16.338;2023-03-15T11:54:06;98874.22;;;14.95;23.99
66762;BME280;53672;48.176;16.338;2023-03-15T11:59:10;98878.63;;;15.47;23.67
66762;BME280;53672;48.176;16.338;2023-03-15T12:04:43;98876.88;;;15.43;23.96
66762;BME280;53672;48.176;16.338;2023-03-15T12:09:48;98866.03;;;14.78;24.95
66762;BME280;53672;48.176;16.338;2023-03-15T12:15:00;98871.00;;;14.84;24.98
66762;BME280;53672;48.176;16.338;2023-03-15T12:20:07;98861.19;;;14.66;25.20
66762;BME280;53672;48.176;16.338;2023-03-15T12:25:13;98856.09;;;15.30;24.49
66762;BME280;53672;48.176;16.338;2023-03-15T12:30:20;98845.06;;;15.26;23.81
66762;BME280;53672;48.176;16.338;2023-03-15T12:35:38;98848.09;;;15.16;24.32
66762;BME280;53672;48.176;16.338;2023-03-15T12:40:51;98853.88;;;15.40;23.07
66762;BME280;53672;48.176;16.338;2023-03-15T12:45:52;98846.03;;;15.39;22.76
66762;BME280;53672;48.176;16.338;2023-03-15T12:51:05;98847.81;;;15.43;23.67
66762;BME280;53672;48.176;16.338;2023-03-15T12:56:27;98843.16;;;16.59;21.77
66762;BME280;53672;48.176;16.338;2023-03-15T13:01:29;98845.34;;;16.74;27.72
66762;BME280;53672;48.176;16.338;2023-03-15T13:06:40;98845.84;;;17.47;24.94
66762;BME280;53672;48.176;16.338;2023-03-15T13:11:49;98843.97;;;17.18;21.24
66762;BME280;53672;48.176;16.338;2023-03-15T13:16:57;98843.03;;;16.47;21.64
66762;BME280;53672;48.176;16.338;2023-03-15T13:22:09;98840.72;;;14.99;23.34
66762;BME280;53672;48.176;16.338;2023-03-15T13:27:24;98851.56;;;14.29;24.29
66762;BME280;53672;48.176;16.338;2023-03-15T13:32:28;98830.88;;;13.80;24.44
66762;BME280;53672;48.176;16.338;2023-03-15T13:37:30;98846.38;;;13.44;24.97
66762;BME280;53672;48.176;16.338;2023-03-15T13:42:31;98846.38;;;12.94;25.86
66762;BME280;53672;48.176;16.338;2023-03-15T13:47:32;98842.84;;;13.07;25.79
66762;BME280;53672;48.176;16.338;2023-03-15T13:52:35;98844.81;;;13.29;24.86
66762;BME280;53672;48.176;16.338;2023-03-15T13:57:35;98845.53;;;13.07;24.95
66762;BME280;53672;48.176;16.338;2023-03-15T14:02:43;98852.03;;;13.34;24.70
66762;BME280;53672;48.176;16.338;2023-03-15T14:07:47;98850.34;;;13.24;24.73
66762;BME280;53672;48.176;16.338;2023-03-15T14:12:48;98856.78;;;12.87;25.35
66762;BME280;53672;48.176;16.338;2023-03-15T14:17:53;98856.97;;;13.18;24.72
66762;BME280;53672;48.176;16.338;2023-03-15T14:22:59;98863.66;;;12.25;24.20
66762;BME280;53672;48.176;16.338;2023-03-15T14:28:01;98866.66;;;11.91;25.57
66762;BME280;53672;48.176;16.338;2023-03-15T14:33:04;98860.34;;;11.63;26.33
66762;BME280;53672;48.176;16.338;2023-03-15T14:38:08;98864.81;;;11.68;25.94
66762;BME280;53672;48.176;16.338;2023-03-15T14:43:14;98874.91;;;11.25;25.83
66762;BME280;53672;48.176;16.338;2023-03-15T14:48:23;98870.91;;;10.56;27.04
66762;BME280;53672;48.176;16.338;2023-03-15T14:53:31;98878.34;;;10.17;28.25
66762;BME280;53672;48.176;16.338;2023-03-15T14:58:33;98868.72;;;10.01;28.52
66762;BME280;53672;48.176;16.338;2023-03-15T15:03:36;98887.09;;;9.94;28.84
66762;BME280;53672;48.176;16.338;2023-03-15T15:08:41;98889.69;;;10.04;28.77
66762;BME280;53672;48.176;16.338;2023-03-15T15:13:43;98887.50;;;9.77;28.37
66762;BME280;53672;48.176;16.338;2023-03-15T15:18:43;98884.97;;;9.57;28.62
66762;BME280;53672;48.176;16.338;2023-03-15T15:23:45;98887.03;;;9.26;29.44
66762;BME280;53672;48.176;16.338;2023-03-15T15:28:46;98893.28;;;9.16;29.73
66762;BME280;53672;48.176;16.338;2023-03-15T15:33:47;98913.16;;;9.21;30.13
66762;BME280;53672;48.176;16.338;2023-03-15T15:38:49;98905.31;;;9.29;29.76
66762;BME280;53672;48.176;16.338;2023-03-15T15:43:50;98916.91;;;9.20;30.01
66762;BME280;53672;48.176;16.338;2023-03-15T15:48:51;98920.75;;;9.03;30.86
66762;BME280;53672;48.176;16.338;2023-03-15T15:53:55;98920.50;;;8.95;30.47
66762;BME280;53672;48.176;16.338;2023-03-15T15:58:56;98942.09;;;8.64;30.76
66762;BME280;53672;48.176;16.338;2023-03-15T16:03:58;98948.59;;;8.43;31.63
66762;BME280;53672;48.176;16.338;2023-03-15T16:09:02;98957.97;;;8.15;32.05
66762;BME280;53672;48.176;16.338;2023-03-15T16:14:04;98957.69;;;7.92;32.60
66762;BME280;53672;48.176;16.338;2023-03-15T16:19:04;98958.78;;;7.81;33.43
66762;BME280;53672;48.176;16.338;2023-03-15T16:24:10;98970.28;;;7.66;34.11
66762;BME280;53672;48.176;16.338;2023-03-15T16:29:15;98977.19;;;7.57;34.06
66762;BME280;53672;48.176;16.338;2023-03-15T16:34:17;98987.13;;;7.46;34.38
66762;BME280;53672;48.176;16.338;2023-03-15T16:39:20;98995.69;;;7.48;39.65
66762;BME280;53672;48.176;16.338;2023-03-15T16:44:21;99007.69;;;7.31;41.88
66762;BME280;53672;48.176;16.338;2023-03-15T16:49:23;99002.00;;;7.12;43.36
66762;BME280;53672;48.176;16.338;2023-03-15T16:54:26;99017.09;;;6.86;43.76
66762;BME280;53672;48.176;16.338;2023-03-15T16:59:28;99016.22;;;6.76;44.70
66762;BME280;53672;48.176;16.338;2023-03-15T17:04:30;99038.94;;;6.68;44.57
66762;BME280;53672;48.176;16.338;2023-03-15T17:09:32;99049.03;;;6.56;45.78
66762;BME280;53672;48.176;16.338;2023-03-15T17:14:34;99049.25;;;6.49;46.03
66762;BME280;53672;48.176;16.338;2023-03-15T17:19:36;99078.41;;;6.46;47.39
66762;BME280;53672;48.176;16.338;2023-03-15T17:24:39;99086.25;;;6.26;50.37
66762;BME280;53672;48.176;16.338;2023-03-15T17:29:40;99097.69;;;5.94;53.16
66762;BME280;53672;48.176;16.338;2023-03-15T17:34:42;99108.00;;;5.64;54.92
66762;BME280;53672;48.176;16.338;2023-03-15T17:39:44;99108.31;;;5.46;56.42
66762;BME280;53672;48.176;16.338;2023-03-15T17:44:46;99120.19;;;5.33;57.26
66762;BME280;53672;48.176;16.338;2023-03-15T17:49:47;99129.50;;;5.14;57.81
66762;BME280;53672;48.176;16.338;2023-03-15T17:54:50;99132.59;;;5.06;58.68
66762;BME280;53672;48.176;16.338;2023-03-15T17:59:51;99136.47;;;5.15;58.77
66762;BME280;53672;48.176;16.338;2023-03-15T18:04:53;99151.38;;;5.11;58.99
66762;BME280;53672;48.176;16.338;2023-03-15T18:09:56;99145.69;;;5.07;58.86
66762;BME280;53672;48.176;16.338;2023-03-15T18:14:58;99169.09;;;5.00;59.48
66762;BME280;53672;48.176;16.338;2023-03-15T18:20:00;99167.78;;;4.86;59.91
66762;BME280;53672;48.176;16.338;2023-03-15T18:25:02;99166.25;;;4.90;60.46
66762;BME280;53672;48.176;16.338;2023-03-15T18:30:04;99173.47;;;4.90;59.91
66762;BME280;53672;48.176;16.338;2023-03-15T18:35:11;99172.41;;;4.91;60.14
66762;BME280;53672;48.176;16.338;2023-03-15T18:40:16;99187.56;;;4.85;60.06
66762;BME280;53672;48.176;16.338;2023-03-15T18:45:19;99194.72;;;4.68;60.84
66762;BME280;53672;48.176;16.338;2023-03-15T18:50:22;99195.03;;;4.55;61.33
66762;BME280;53672;48.176;16.338;2023-03-15T18:55:25;99198.25;;;4.57;61.35
66762;BME280;53672;48.176;16.338;2023-03-15T19:00:28;99198.38;;;4.62;60.70
66762;BME280;53672;48.176;16.338;2023-03-15T19:05:32;99191.72;;;4.65;59.52
66762;BME280;53672;48.176;16.338;2023-03-15T19:10:38;99196.38;;;4.69;59.03
66762;BME280;53672;48.176;16.338;2023-03-15T19:15:40;99196.25;;;4.64;58.67
66762;BME280;53672;48.176;16.338;2023-03-15T19:20:41;99203.72;;;4.62;58.92
66762;BME280;53672;48.176;16.338;2023-03-15T19:25:44;99211.44;;;4.47;58.72
66762;BME280;53672;48.176;16.338;2023-03-15T19:30:46;99215.53;;;4.38;59.13
66762;BME280;53672;48.176;16.338;2023-03-15T19:35:47;99226.09;;;4.33;58.35
66762;BME280;53672;48.176;16.338;2023-03-15T19:40:50;99225.81;;;4.46;57.80
66762;BME280;53672;48.176;16.338;2023-03-15T19:45:52;99236.09;;;4.54;57.07
66762;BME280;53672;48.176;16.338;2023-03-15T19:50:53;99242.13;;;4.61;56.85
66762;BME280;53672;48.176;16.338;2023-03-15T19:55:56;99243.00;;;4.67;56.34
66762;BME280;53672;48.176;16.338;2023-03-15T20:00:57;99243.34;;;4.70;56.31
66762;BME280;53672;48.176;16.338;2023-03-15T20:06:03;99245.72;;;4.83;55.95
66762;BME280;53672;48.176;16.338;2023-03-15T20:11:07;99254.72;;;4.94;54.79
66762;BME280;53672;48.176;16.338;2023-03-15T20:16:08;99263.38;;;5.01;54.92
66762;BME280;53672;48.176;16.338;2023-03-15T20:21:09;99266.38;;;5.04;54.24
66762;BME280;53672;48.176;16.338;2023-03-15T20:26:19;99257.56;;;5.04;54.95
66762;BME280;53672;48.176;16.338;2023-03-15T20:31:20;99267.59;;;4.97;54.26
66762;BME280;53672;48.176;16.338;2023-03-15T20:36:22;99272.59;;;4.93;54.73
66762;BME280;53672;48.176;16.338;2023-03-15T20:41:24;99280.53;;;4.88;53.91
66762;BME280;53672;48.176;16.338;2023-03-15T20:46:28;99287.06;;;4.81;54.35
66762;BME280;53672;48.176;16.338;2023-03-15T20:51:29;99280.81;;;4.75;54.41
66762;BME280;53672;48.176;16.338;2023-03-15T20:56:31;99288.16;;;4.68;54.14
66762;BME280;53672;48.176;16.338;2023-03-15T21:01:33;99292.72;;;4.56;54.83
66762;BME280;53672;48.176;16.338;2023-03-15T21:06:35;99309.00;;;4.43;54.53
66762;BME280;53672;48.176;16.338;2023-03-15T21:11:38;99309.94;;;4.37;55.13
66762;BME280;53672;48.176;16.338;2023-03-15T21:16:39;99319.38;;;4.28;55.41
66762;BME280;53672;48.176;16.338;2023-03-15T21:21:42;99320.19;;;4.17;54.82
66762;BME280;53672;48.176;16.338;2023-03-15T21:26:44;99317.91;;;3.97;55.27
66762;BME280;53672;48.176;16.338;2023-03-15T21:31:46;99318.47;;;3.87;56.52
66762;BME280;53672;48.176;16.338;2023-03-15T21:36:47;99322.06;;;3.81;57.27
66762;BME280;53672;48.176;16.338;2023-03-15T21:41:49;99327.03;;;3.78;57.50
66762;BME280;53672;48.176;16.338;2023-03-15T21:46:50;99329.72;;;3.66;58.38
66762;BME280;53672;48.176;16.338;2023-03-15T21:51:50;99335.84;;;3.67;58.53
66762;BME280;53672;48.176;16.338;2023-03-15T21:56:52;99334.09;;;3.49;59.07
66762;BME280;53672;48.176;16.338;2023-03-15T22:01:53;99335.13;;;3.48;59.80
66762;BME280;53672;48.176;16.338;2023-03-15T22:06:54;99337.91;;;3.53;59.19
66762;BME280;53672;48.176;16.338;2023-03-15T22:11:56;99336.41;;;3.57;59.34
66762;BME280;53672;48.176;16.338;2023-03-15T22:16:56;99343.59;;;3.45;59.51
66762;BME280;53672;48.176;16.338;2023-03-15T22:21:57;99344.59;;;3.32;60.55
66762;BME280;53672;48.176;16.338;2023-03-15T22:26:59;99339.91;;;3.16;61.37
66762;BME280;53672;48.176;16.338;2023-03-15T22:31:59;99360.38;;;3.04;62.48
66762;BME280;53672;48.176;16.338;2023-03-15T22:37:00;99357.97;;;2.84;63.10
66762;BME280;53672;48.176;16.338;2023-03-15T22:42:02;99376.59;;;2.84;64.12
66762;BME280;53672;48.176;16.338;2023-03-15T22:47:03;99376.47;;;2.79;64.66
66762;BME280;53672;48.176;16.338;2023-03-15T22:52:03;99379.25;;;2.84;65.65
66762;BME280;53672;48.176;16.338;2023-03-15T22:57:05;99397.09;;;2.84;66.01
66762;BME280;53672;48.176;16.338;2023-03-15T23:02:06;99402.88;;;2.81;67.13
66762;BME280;53672;48.176;16.338;2023-03-15T23:07:07;99418.69;;;2.76;67.79
66762;BME280;53672;48.176;16.338;2023-03-15T23:12:09;99419.88;;;2.80;68.56
66762;BME280;53672;48.176;16.338;2023-03-15T23:17:10;99428.50;;;2.75;69.03
66762;BME280;53672;48.176;16.338;2023-03-15T23:22:11;99425.03;;;2.75;69.45
66762;BME280;53672;48.176;16.338;2023-03-15T23:27:13;99430.72;;;2.78;69.85
66762;BME280;53672;48.176;16.338;2023-03-15T23:32:13;99438.25;;;2.81;69.67
66762;BME280;53672;48.176;16.338;2023-03-15T23:37:14;99427.41;;;2.83;70.28
66762;BME280;53672;48.176;16.338;2023-03-15T23:42:15;99440.13;;;2.81;71.07
66762;BME280;53672;48.176;16.338;2023-03-15T23:47:16;99437.50;;;2.74;71.24
66762;BME280;53672;48.176;16.338;2023-03-15T23:52:17;99437.47;;;2.63;71.75
66762;BME280;53672;48.176;16.338;2023-03-15T23:57:19;99445.97;;;2.53;72.46
